Airfield :
LOGIN :

Register | Disclaimer

   EN    FR    IT 

 










Legend :    VFR   Marginal VFR   IFR   Intensive IFR   Very Intensive IFR
Visi :
Ceiling :
>= 8 km
>= 3000ft
5 to 8 km
1000 to 3000 ft
1500m to 5 km
500 to 1000 ft
800 to 1500m
200 to 500 ft
< 800m
< 200 ft
Symbols :   Thunderstorms  Fog  Heavy snow  Heavy precipitations  Wind > 20 kt
SIGMETs :     Misc.  Thunderstorms  Icing  Turbulence  Mountain Waves  Volcanic Ashes







- Airport Elevation : 1300 ft
- IATA code : LIG
- Download approach charts


LFBL - Limoges

CURRENT METAR :
  • 200900Z AUTO 19002KT 6000 FEW002 OVC021 07/07 Q1025 BECMG 4000 BR BKN011

EXPIRED METARs :
  • 200830Z AUTO 00000KT 4400 BR VV/// 07/07 Q1025 BECMG BKN011
  • 200800Z AUTO 00000KT 3100 BR VV/// 07/07 Q1025 TEMPO 0200 BCFG BECMG BKN011
  • 200730Z AUTO 00000KT 1700 1400 R21/3100U R03/1300U BR VV/// 06/06 Q1025 BECMG 4000 BR BKN011
  • 200700Z AUTO 00000KT 0250 R21/0375N R03/0300N FG VV/// 06/06 Q1024 TEMPO 2000 BR BKN005
  • 200630Z AUTO VRB02KT 0400 0350 R21/0550U R03/0450N FG VV/// 06/06 Q1024 TEMPO 2000 BR BKN005

TAF AMD TAF LFBL
Valid from the 20 at 07:00 until the 21 at 06:00 UTC


200707Z 2007/2106 VRB02KT 0400 FG VV///
TEMPO 2007/2009 0200 BCFG VV///
BECMG 2009/2011 4000 BR BKN011
TEMPO 2011/2016 7000 NSW SCT015
BECMG 2016/2018 CAVOK
BECMG 2019/2021 11005KT
PROB40
TEMPO 2020/2106 3000 BR
ATIS : +33 5 55 48 40 37
No reported NOTAMs for that airfield.



MET'MAP, your aeronautical weather chart ! - Copyright ORBIFLY December 2007 - Disclaimer

ORBIFLY MET'MAP TEAM :

Programming & Development : Alexandra Zaïnal
Concept & Development : Baudouin d'Aumeries
Co-Development & Prog : Marc-Olivier Méhu
Technical & hardware support : Manuel Goepfert

Contact : metmap@orbifly.com




SOURCES & CREDITS :

   NOAA